sensor_id;sensor_type;location;lat;lon;timestamp;temperature;humidity
45283;DHT22;31023;44.994;1.796;2023-02-01T00:02:04;5.60;99.90
45283;DHT22;31023;44.994;1.796;2023-02-01T00:04:29;5.50;99.90
45283;DHT22;31023;44.994;1.796;2023-02-01T00:06:55;5.40;99.90
45283;DHT22;31023;44.994;1.796;2023-02-01T00:09:21;5.40;99.90
45283;DHT22;31023;44.994;1.796;2023-02-01T00:11:46;5.50;99.90
45283;DHT22;31023;44.994;1.796;2023-02-01T00:14:12;5.60;99.90
45283;DHT22;31023;44.994;1.796;2023-02-01T00:16:38;5.60;99.90
45283;DHT22;31023;44.994;1.796;2023-02-01T00:19:05;5.50;99.90
45283;DHT22;31023;44.994;1.796;2023-02-01T00:21:31;5.50;99.90
45283;DHT22;31023;44.994;1.796;2023-02-01T00:23:57;5.50;99.90
45283;DHT22;31023;44.994;1.796;2023-02-01T00:26:25;5.50;99.90
45283;DHT22;31023;44.994;1.796;2023-02-01T00:28:52;5.50;99.90
45283;DHT22;31023;44.994;1.796;2023-02-01T00:31:18;5.50;99.90
45283;DHT22;31023;44.994;1.796;2023-02-01T00:33:46;5.50;99.90
45283;DHT22;31023;44.994;1.796;2023-02-01T00:36:12;5.50;99.90
45283;DHT22;31023;44.994;1.796;2023-02-01T00:38:37;5.40;99.90
45283;DHT22;31023;44.994;1.796;2023-02-01T00:43:30;5.40;99.90
45283;DHT22;31023;44.994;1.796;2023-02-01T00:45:55;5.40;99.90
45283;DHT22;31023;44.994;1.796;2023-02-01T00:48:21;5.50;99.90
45283;DHT22;31023;44.994;1.796;2023-02-01T00:50:47;5.50;99.90
45283;DHT22;31023;44.994;1.796;2023-02-01T00:53:12;5.50;99.90
45283;DHT22;31023;44.994;1.796;2023-02-01T00:55:39;5.50;99.90
45283;DHT22;31023;44.994;1.796;2023-02-01T00:58:04;5.40;99.90
45283;DHT22;31023;44.994;1.796;2023-02-01T01:00:34;5.40;99.90
45283;DHT22;31023;44.994;1.796;2023-02-01T01:03:00;5.40;99.90
45283;DHT22;31023;44.994;1.796;2023-02-01T01:05:25;5.40;99.90
45283;DHT22;31023;44.994;1.796;2023-02-01T01:07:53;5.30;99.90
45283;DHT22;31023;44.994;1.796;2023-02-01T01:10:18;5.30;99.90
45283;DHT22;31023;44.994;1.796;2023-02-01T01:12:44;5.40;99.90
45283;DHT22;31023;44.994;1.796;2023-02-01T01:15:10;5.40;99.90
45283;DHT22;31023;44.994;1.796;2023-02-01T01:17:35;5.40;99.90
45283;DHT22;31023;44.994;1.796;2023-02-01T01:20:02;5.40;99.90
45283;DHT22;31023;44.994;1.796;2023-02-01T01:22:27;5.40;99.90
45283;DHT22;31023;44.994;1.796;2023-02-01T01:24:53;5.50;99.90
45283;DHT22;31023;44.994;1.796;2023-02-01T01:27:19;5.40;99.90
45283;DHT22;31023;44.994;1.796;2023-02-01T01:29:49;5.40;99.90
45283;DHT22;31023;44.994;1.796;2023-02-01T01:32:14;5.50;99.90
45283;DHT22;31023;44.994;1.796;2023-02-01T01:34:40;5.50;99.90
45283;DHT22;31023;44.994;1.796;2023-02-01T01:37:05;5.50;99.90
45283;DHT22;31023;44.994;1.796;2023-02-01T01:39:31;5.60;99.90
45283;DHT22;31023;44.994;1.796;2023-02-01T01:41:56;5.60;99.90
45283;DHT22;31023;44.994;1.796;2023-02-01T01:47:07;5.60;99.90
45283;DHT22;31023;44.994;1.796;2023-02-01T01:49:33;5.50;99.90
45283;DHT22;31023;44.994;1.796;2023-02-01T01:52:00;5.50;99.90
45283;DHT22;31023;44.994;1.796;2023-02-01T01:54:29;5.50;99.90
45283;DHT22;31023;44.994;1.796;2023-02-01T01:57:00;5.50;99.90
45283;DHT22;31023;44.994;1.796;2023-02-01T01:59:27;5.60;99.90
45283;DHT22;31023;44.994;1.796;2023-02-01T02:01:52;5.60;99.90
45283;DHT22;31023;44.994;1.796;2023-02-01T02:04:18;5.60;99.90
45283;DHT22;31023;44.994;1.796;2023-02-01T02:06:45;5.60;99.90
45283;DHT22;31023;44.994;1.796;2023-02-01T02:09:13;5.50;99.90
45283;DHT22;31023;44.994;1.796;2023-02-01T02:11:39;5.50;99.90
45283;DHT22;31023;44.994;1.796;2023-02-01T02:14:05;5.50;99.90
45283;DHT22;31023;44.994;1.796;2023-02-01T02:16:52;5.50;99.90
45283;DHT22;31023;44.994;1.796;2023-02-01T02:32:57;5.40;99.90
45283;DHT22;31023;44.994;1.796;2023-02-01T02:37:56;5.30;99.90
45283;DHT22;31023;44.994;1.796;2023-02-01T02:43:14;5.20;99.90
45283;DHT22;31023;44.994;1.796;2023-02-01T02:46:04;5.20;99.90
45283;DHT22;31023;44.994;1.796;2023-02-01T02:49:01;5.30;99.90
45283;DHT22;31023;44.994;1.796;2023-02-01T02:51:32;5.30;99.90
45283;DHT22;31023;44.994;1.796;2023-02-01T02:54:19;5.40;99.90
45283;DHT22;31023;44.994;1.796;2023-02-01T02:57:06;5.40;99.90
45283;DHT22;31023;44.994;1.796;2023-02-01T02:59:51;5.40;99.90
45283;DHT22;31023;44.994;1.796;2023-02-01T03:02:36;5.40;99.90
45283;DHT22;31023;44.994;1.796;2023-02-01T03:05:21;5.30;99.90
45283;DHT22;31023;44.994;1.796;2023-02-01T03:10:30;5.40;99.90
45283;DHT22;31023;44.994;1.796;2023-02-01T03:13:08;5.40;99.90
45283;DHT22;31023;44.994;1.796;2023-02-01T03:18:23;5.30;99.90
45283;DHT22;31023;44.994;1.796;2023-02-01T03:20:51;5.30;99.90
45283;DHT22;31023;44.994;1.796;2023-02-01T03:23:18;5.30;99.90
45283;DHT22;31023;44.994;1.796;2023-02-01T03:25:46;5.20;99.90
45283;DHT22;31023;44.994;1.796;2023-02-01T03:28:13;5.30;99.90
45283;DHT22;31023;44.994;1.796;2023-02-01T03:30:41;5.30;99.90
45283;DHT22;31023;44.994;1.796;2023-02-01T03:33:09;5.30;99.90
45283;DHT22;31023;44.994;1.796;2023-02-01T03:38:23;5.40;99.90
45283;DHT22;31023;44.994;1.796;2023-02-01T03:40:56;5.40;99.90
45283;DHT22;31023;44.994;1.796;2023-02-01T03:43:23;5.40;99.90
45283;DHT22;31023;44.994;1.796;2023-02-01T03:45:52;5.50;99.90
45283;DHT22;31023;44.994;1.796;2023-02-01T03:48:19;5.40;99.90
45283;DHT22;31023;44.994;1.796;2023-02-01T03:50:48;5.40;99.90
45283;DHT22;31023;44.994;1.796;2023-02-01T03:53:15;5.40;99.90
45283;DHT22;31023;44.994;1.796;2023-02-01T03:55:42;5.40;99.90
45283;DHT22;31023;44.994;1.796;2023-02-01T04:00:33;5.50;99.90
45283;DHT22;31023;44.994;1.796;2023-02-01T04:02:59;5.50;99.90
45283;DHT22;31023;44.994;1.796;2023-02-01T04:05:24;5.50;99.90
45283;DHT22;31023;44.994;1.796;2023-02-01T04:07:50;5.60;99.90
45283;DHT22;31023;44.994;1.796;2023-02-01T04:10:16;5.60;99.90
45283;DHT22;31023;44.994;1.796;2023-02-01T04:12:42;5.60;99.90
45283;DHT22;31023;44.994;1.796;2023-02-01T04:15:07;5.50;99.90
45283;DHT22;31023;44.994;1.796;2023-02-01T04:17:33;5.40;99.90
45283;DHT22;31023;44.994;1.796;2023-02-01T04:19:58;5.30;99.90
45283;DHT22;31023;44.994;1.796;2023-02-01T04:22:24;5.30;99.90
45283;DHT22;31023;44.994;1.796;2023-02-01T04:24:50;5.30;99.90
45283;DHT22;31023;44.994;1.796;2023-02-01T04:27:15;5.40;99.90
45283;DHT22;31023;44.994;1.796;2023-02-01T04:29:41;5.30;99.90
45283;DHT22;31023;44.994;1.796;2023-02-01T04:32:07;5.40;99.90
45283;DHT22;31023;44.994;1.796;2023-02-01T04:34:32;5.40;99.90
45283;DHT22;31023;44.994;1.796;2023-02-01T04:36:58;5.30;99.90
45283;DHT22;31023;44.994;1.796;2023-02-01T04:39:24;5.40;99.90
45283;DHT22;31023;44.994;1.796;2023-02-01T04:41:49;5.30;99.90
45283;DHT22;31023;44.994;1.796;2023-02-01T04:44:16;5.30;99.90
45283;DHT22;31023;44.994;1.796;2023-02-01T04:46:42;5.30;99.90
45283;DHT22;31023;44.994;1.796;2023-02-01T04:49:11;5.20;99.90
45283;DHT22;31023;44.994;1.796;2023-02-01T04:51:36;5.30;99.90
45283;DHT22;31023;44.994;1.796;2023-02-01T04:54:02;5.20;99.90
45283;DHT22;31023;44.994;1.796;2023-02-01T04:56:28;5.20;99.90
45283;DHT22;31023;44.994;1.796;2023-02-01T04:58:54;5.30;99.90
45283;DHT22;31023;44.994;1.796;2023-02-01T05:01:20;5.30;99.90
45283;DHT22;31023;44.994;1.796;2023-02-01T05:03:46;5.30;99.90
45283;DHT22;31023;44.994;1.796;2023-02-01T05:06:11;5.30;99.90
45283;DHT22;31023;44.994;1.796;2023-02-01T05:08:37;5.30;99.90
45283;DHT22;31023;44.994;1.796;2023-02-01T05:11:02;5.20;99.90
45283;DHT22;31023;44.994;1.796;2023-02-01T05:13:28;5.20;99.90
45283;DHT22;31023;44.994;1.796;2023-02-01T05:16:13;5.20;99.90
45283;DHT22;31023;44.994;1.796;2023-02-01T05:18:38;5.20;99.90
45283;DHT22;31023;44.994;1.796;2023-02-01T05:21:04;5.20;99.90
45283;DHT22;31023;44.994;1.796;2023-02-01T05:23:30;5.10;99.90
45283;DHT22;31023;44.994;1.796;2023-02-01T05:25:59;5.10;99.90
45283;DHT22;31023;44.994;1.796;2023-02-01T05:28:26;5.10;99.90
45283;DHT22;31023;44.994;1.796;2023-02-01T05:30:52;5.10;99.90
45283;DHT22;31023;44.994;1.796;2023-02-01T05:33:17;5.10;99.90
45283;DHT22;31023;44.994;1.796;2023-02-01T05:35:43;5.10;99.90
45283;DHT22;31023;44.994;1.796;2023-02-01T05:38:08;5.10;99.90
45283;DHT22;31023;44.994;1.796;2023-02-01T05:40:34;5.20;99.90
45283;DHT22;31023;44.994;1.796;2023-02-01T05:42:59;5.20;99.90
45283;DHT22;31023;44.994;1.796;2023-02-01T05:45:25;5.30;99.90
45283;DHT22;31023;44.994;1.796;2023-02-01T05:47:51;5.20;99.90
45283;DHT22;31023;44.994;1.796;2023-02-01T05:50:16;5.20;99.90
45283;DHT22;31023;44.994;1.796;2023-02-01T05:52:42;5.20;99.90
45283;DHT22;31023;44.994;1.796;2023-02-01T05:55:07;5.30;99.90
45283;DHT22;31023;44.994;1.796;2023-02-01T05:57:33;5.10;99.90
45283;DHT22;31023;44.994;1.796;2023-02-01T05:59:59;5.10;99.90
45283;DHT22;31023;44.994;1.796;2023-02-01T06:02:24;5.00;99.90
45283;DHT22;31023;44.994;1.796;2023-02-01T06:04:50;5.10;99.90
45283;DHT22;31023;44.994;1.796;2023-02-01T06:07:16;5.00;99.90
45283;DHT22;31023;44.994;1.796;2023-02-01T06:09:42;4.90;99.90
45283;DHT22;31023;44.994;1.796;2023-02-01T06:12:07;5.00;99.90
45283;DHT22;31023;44.994;1.796;2023-02-01T06:14:33;4.90;99.90
45283;DHT22;31023;44.994;1.796;2023-02-01T06:16:58;4.90;99.90
45283;DHT22;31023;44.994;1.796;2023-02-01T06:19:24;4.90;99.90
45283;DHT22;31023;44.994;1.796;2023-02-01T06:21:49;4.90;99.90
45283;DHT22;31023;44.994;1.796;2023-02-01T06:24:15;4.90;99.90
45283;DHT22;31023;44.994;1.796;2023-02-01T06:26:41;4.90;99.90
45283;DHT22;31023;44.994;1.796;2023-02-01T06:29:06;4.80;99.90
45283;DHT22;31023;44.994;1.796;2023-02-01T06:31:33;4.80;99.90
45283;DHT22;31023;44.994;1.796;2023-02-01T06:33:58;4.80;99.90
45283;DHT22;31023;44.994;1.796;2023-02-01T06:36:24;4.80;99.90
45283;DHT22;31023;44.994;1.796;2023-02-01T06:38:49;4.90;99.90
45283;DHT22;31023;44.994;1.796;2023-02-01T06:41:15;4.90;99.90
45283;DHT22;31023;44.994;1.796;2023-02-01T06:43:41;4.80;99.90
45283;DHT22;31023;44.994;1.796;2023-02-01T06:46:08;4.80;99.90
45283;DHT22;31023;44.994;1.796;2023-02-01T06:48:34;4.80;99.90
45283;DHT22;31023;44.994;1.796;2023-02-01T06:51:00;4.90;99.90
45283;DHT22;31023;44.994;1.796;2023-02-01T06:53:25;4.90;99.90
45283;DHT22;31023;44.994;1.796;2023-02-01T06:55:52;4.80;99.90
45283;DHT22;31023;44.994;1.796;2023-02-01T06:58:18;4.90;99.90
45283;DHT22;31023;44.994;1.796;2023-02-01T07:00:43;4.90;99.90
45283;DHT22;31023;44.994;1.796;2023-02-01T07:03:09;4.90;99.90
45283;DHT22;31023;44.994;1.796;2023-02-01T07:05:34;4.90;99.90
45283;DHT22;31023;44.994;1.796;2023-02-01T07:08:00;4.90;99.90
45283;DHT22;31023;44.994;1.796;2023-02-01T07:10:26;4.90;99.90
45283;DHT22;31023;44.994;1.796;2023-02-01T07:12:51;4.90;99.90
45283;DHT22;31023;44.994;1.796;2023-02-01T07:15:17;4.90;99.90
45283;DHT22;31023;44.994;1.796;2023-02-01T07:17:43;4.90;99.90
45283;DHT22;31023;44.994;1.796;2023-02-01T07:20:10;4.80;99.90
45283;DHT22;31023;44.994;1.796;2023-02-01T07:22:35;4.80;99.90
45283;DHT22;31023;44.994;1.796;2023-02-01T07:25:01;4.80;99.90
45283;DHT22;31023;44.994;1.796;2023-02-01T07:27:27;4.90;99.90
45283;DHT22;31023;44.994;1.796;2023-02-01T07:29:52;4.80;99.90
45283;DHT22;31023;44.994;1.796;2023-02-01T07:32:18;4.90;99.90
45283;DHT22;31023;44.994;1.796;2023-02-01T07:34:44;4.80;99.90
45283;DHT22;31023;44.994;1.796;2023-02-01T07:37:10;4.80;99.90
45283;DHT22;31023;44.994;1.796;2023-02-01T07:39:35;4.80;99.90
45283;DHT22;31023;44.994;1.796;2023-02-01T07:42:01;4.90;99.90
45283;DHT22;31023;44.994;1.796;2023-02-01T07:44:27;4.80;99.90
45283;DHT22;31023;44.994;1.796;2023-02-01T07:46:52;4.80;99.90
45283;DHT22;31023;44.994;1.796;2023-02-01T07:49:18;4.90;99.90
45283;DHT22;31023;44.994;1.796;2023-02-01T07:51:43;4.90;99.90
45283;DHT22;31023;44.994;1.796;2023-02-01T07:54:09;4.90;99.90
45283;DHT22;31023;44.994;1.796;2023-02-01T07:56:35;4.90;99.90
45283;DHT22;31023;44.994;1.796;2023-02-01T07:59:00;4.90;99.90
45283;DHT22;31023;44.994;1.796;2023-02-01T08:01:27;4.90;99.90
45283;DHT22;31023;44.994;1.796;2023-02-01T08:03:54;4.90;99.90
45283;DHT22;31023;44.994;1.796;2023-02-01T08:06:20;4.90;99.90
45283;DHT22;31023;44.994;1.796;2023-02-01T08:08:46;5.00;99.90
45283;DHT22;31023;44.994;1.796;2023-02-01T08:11:12;5.10;99.90
45283;DHT22;31023;44.994;1.796;2023-02-01T08:13:38;5.10;99.90
45283;DHT22;31023;44.994;1.796;2023-02-01T08:16:05;5.20;99.90
45283;DHT22;31023;44.994;1.796;2023-02-01T08:18:31;5.20;99.90
45283;DHT22;31023;44.994;1.796;2023-02-01T08:20:56;5.20;99.90
45283;DHT22;31023;44.994;1.796;2023-02-01T08:23:22;5.20;99.90
45283;DHT22;31023;44.994;1.796;2023-02-01T08:25:48;5.20;99.90
45283;DHT22;31023;44.994;1.796;2023-02-01T08:28:14;5.30;99.90
45283;DHT22;31023;44.994;1.796;2023-02-01T08:30:40;5.40;99.90
45283;DHT22;31023;44.994;1.796;2023-02-01T08:33:07;5.50;99.90
45283;DHT22;31023;44.994;1.796;2023-02-01T08:35:36;5.50;99.90
45283;DHT22;31023;44.994;1.796;2023-02-01T08:38:02;5.50;99.90
45283;DHT22;31023;44.994;1.796;2023-02-01T08:40:27;5.50;99.90
45283;DHT22;31023;44.994;1.796;2023-02-01T08:42:53;5.50;99.90
45283;DHT22;31023;44.994;1.796;2023-02-01T08:45:23;5.50;99.90
45283;DHT22;31023;44.994;1.796;2023-02-01T08:47:50;5.40;99.90
45283;DHT22;31023;44.994;1.796;2023-02-01T08:50:15;5.70;99.90
45283;DHT22;31023;44.994;1.796;2023-02-01T08:52:41;6.40;99.90
45283;DHT22;31023;44.994;1.796;2023-02-01T08:55:07;7.40;99.90
45283;DHT22;31023;44.994;1.796;2023-02-01T08:57:33;7.70;99.90
45283;DHT22;31023;44.994;1.796;2023-02-01T08:59:58;7.90;99.90
45283;DHT22;31023;44.994;1.796;2023-02-01T09:02:25;7.90;99.90
45283;DHT22;31023;44.994;1.796;2023-02-01T09:04:51;8.50;99.90
45283;DHT22;31023;44.994;1.796;2023-02-01T09:07:17;9.00;99.90
45283;DHT22;31023;44.994;1.796;2023-02-01T09:09:43;8.90;99.90
45283;DHT22;31023;44.994;1.796;2023-02-01T09:12:09;9.00;99.90
45283;DHT22;31023;44.994;1.796;2023-02-01T09:14:34;9.00;99.90
45283;DHT22;31023;44.994;1.796;2023-02-01T09:17:00;8.70;99.90
45283;DHT22;31023;44.994;1.796;2023-02-01T09:19:26;9.70;99.90
45283;DHT22;31023;44.994;1.796;2023-02-01T09:21:51;10.10;99.90
45283;DHT22;31023;44.994;1.796;2023-02-01T09:24:17;9.70;99.90
45283;DHT22;31023;44.994;1.796;2023-02-01T09:26:43;9.30;99.90
45283;DHT22;31023;44.994;1.796;2023-02-01T09:29:08;9.60;99.90
45283;DHT22;31023;44.994;1.796;2023-02-01T09:31:37;9.50;99.90
45283;DHT22;31023;44.994;1.796;2023-02-01T09:34:03;9.20;99.90
45283;DHT22;31023;44.994;1.796;2023-02-01T09:36:28;9.50;99.90
45283;DHT22;31023;44.994;1.796;2023-02-01T09:38:54;9.50;99.90
45283;DHT22;31023;44.994;1.796;2023-02-01T09:43:58;9.60;99.90
45283;DHT22;31023;44.994;1.796;2023-02-01T09:46:27;9.40;99.90
45283;DHT22;31023;44.994;1.796;2023-02-01T09:48:54;9.10;99.90
45283;DHT22;31023;44.994;1.796;2023-02-01T09:51:21;8.90;99.90
45283;DHT22;31023;44.994;1.796;2023-02-01T09:53:55;8.40;99.90
45283;DHT22;31023;44.994;1.796;2023-02-01T09:56:27;8.30;99.90
45283;DHT22;31023;44.994;1.796;2023-02-01T09:59:40;8.20;99.90
45283;DHT22;31023;44.994;1.796;2023-02-01T10:01:40;8.40;99.90
45283;DHT22;31023;44.994;1.796;2023-02-01T10:04:07;8.40;99.90
45283;DHT22;31023;44.994;1.796;2023-02-01T10:16:51;8.70;99.90
45283;DHT22;31023;44.994;1.796;2023-02-01T10:19:25;8.50;99.90
45283;DHT22;31023;44.994;1.796;2023-02-01T10:24:36;9.00;99.90
45283;DHT22;31023;44.994;1.796;2023-02-01T10:27:08;9.20;99.90
45283;DHT22;31023;44.994;1.796;2023-02-01T10:29:37;9.10;99.90
45283;DHT22;31023;44.994;1.796;2023-02-01T10:32:09;9.00;99.90
45283;DHT22;31023;44.994;1.796;2023-02-01T10:34:37;8.70;99.90
45283;DHT22;31023;44.994;1.796;2023-02-01T10:39:34;8.80;99.90
45283;DHT22;31023;44.994;1.796;2023-02-01T10:42:00;8.80;99.90
45283;DHT22;31023;44.994;1.796;2023-02-01T10:44:26;8.80;99.90
45283;DHT22;31023;44.994;1.796;2023-02-01T10:46:53;8.50;99.90
45283;DHT22;31023;44.994;1.796;2023-02-01T10:51:49;8.80;99.90
45283;DHT22;31023;44.994;1.796;2023-02-01T10:54:20;9.00;99.90
45283;DHT22;31023;44.994;1.796;2023-02-01T10:56:46;9.10;99.90
45283;DHT22;31023;44.994;1.796;2023-02-01T10:59:16;9.10;99.90
45283;DHT22;31023;44.994;1.796;2023-02-01T11:01:43;9.10;99.90
45283;DHT22;31023;44.994;1.796;2023-02-01T11:04:10;9.50;99.90
45283;DHT22;31023;44.994;1.796;2023-02-01T11:06:42;9.60;99.90
45283;DHT22;31023;44.994;1.796;2023-02-01T11:11:47;9.60;99.90
45283;DHT22;31023;44.994;1.796;2023-02-01T11:14:19;9.50;99.90
45283;DHT22;31023;44.994;1.796;2023-02-01T11:16:49;9.70;99.90
45283;DHT22;31023;44.994;1.796;2023-02-01T11:19:16;9.60;99.90
45283;DHT22;31023;44.994;1.796;2023-02-01T11:21:42;9.60;99.90
45283;DHT22;31023;44.994;1.796;2023-02-01T11:24:23;9.60;99.90
45283;DHT22;31023;44.994;1.796;2023-02-01T11:26:49;9.80;99.90
45283;DHT22;31023;44.994;1.796;2023-02-01T11:29:16;9.90;99.90
45283;DHT22;31023;44.994;1.796;2023-02-01T11:31:42;9.90;99.90
45283;DHT22;31023;44.994;1.796;2023-02-01T11:34:14;9.80;99.90
45283;DHT22;31023;44.994;1.796;2023-02-01T11:36:40;9.80;99.90
45283;DHT22;31023;44.994;1.796;2023-02-01T11:39:16;9.50;99.90
45283;DHT22;31023;44.994;1.796;2023-02-01T11:44:31;8.70;99.90
45283;DHT22;31023;44.994;1.796;2023-02-01T11:49:57;8.30;99.90
45283;DHT22;31023;44.994;1.796;2023-02-01T12:02:40;8.50;99.90
45283;DHT22;31023;44.994;1.796;2023-02-01T12:10:50;10.10;99.90
45283;DHT22;31023;44.994;1.796;2023-02-01T12:18:24;10.00;99.90
45283;DHT22;31023;44.994;1.796;2023-02-01T12:23:44;10.00;99.90
45283;DHT22;31023;44.994;1.796;2023-02-01T12:39:24;10.00;99.90
45283;DHT22;31023;44.994;1.796;2023-02-01T12:50:39;10.00;99.90
45283;DHT22;31023;44.994;1.796;2023-02-01T12:52:46;9.80;99.90
45283;DHT22;31023;44.994;1.796;2023-02-01T12:55:22;9.40;99.90
45283;DHT22;31023;44.994;1.796;2023-02-01T12:57:50;9.40;99.90
45283;DHT22;31023;44.994;1.796;2023-02-01T13:08:08;9.70;99.90
45283;DHT22;31023;44.994;1.796;2023-02-01T13:10:36;9.80;99.90
45283;DHT22;31023;44.994;1.796;2023-02-01T13:13:14;9.90;99.90
45283;DHT22;31023;44.994;1.796;2023-02-01T13:15:48;10.10;99.90
45283;DHT22;31023;44.994;1.796;2023-02-01T13:18:20;10.00;99.90
45283;DHT22;31023;44.994;1.796;2023-02-01T13:23:26;10.00;99.90
45283;DHT22;31023;44.994;1.796;2023-02-01T13:25:52;10.00;99.90
45283;DHT22;31023;44.994;1.796;2023-02-01T13:35:50;9.30;99.90
45283;DHT22;31023;44.994;1.796;2023-02-01T13:43:39;8.90;99.60
45283;DHT22;31023;44.994;1.796;2023-02-01T13:46:08;8.90;98.50
45283;DHT22;31023;44.994;1.796;2023-02-01T13:51:06;9.60;99.90
45283;DHT22;31023;44.994;1.796;2023-02-01T13:53:33;9.50;99.90
45283;DHT22;31023;44.994;1.796;2023-02-01T13:56:20;9.50;99.90
45283;DHT22;31023;44.994;1.796;2023-02-01T13:58:48;9.80;99.90
45283;DHT22;31023;44.994;1.796;2023-02-01T14:01:35;9.50;99.90
45283;DHT22;31023;44.994;1.796;2023-02-01T14:04:01;9.40;99.90
45283;DHT22;31023;44.994;1.796;2023-02-01T14:14:37;10.00;99.90
45283;DHT22;31023;44.994;1.796;2023-02-01T14:21:52;9.70;99.20
45283;DHT22;31023;44.994;1.796;2023-02-01T14:26:59;9.20;96.80
45283;DHT22;31023;44.994;1.796;2023-02-01T14:29:26;9.10;97.80
45283;DHT22;31023;44.994;1.796;2023-02-01T14:31:59;9.10;96.80
45283;DHT22;31023;44.994;1.796;2023-02-01T14:39:23;9.30;95.40
45283;DHT22;31023;44.994;1.796;2023-02-01T14:41:52;9.40;96.40
45283;DHT22;31023;44.994;1.796;2023-02-01T14:44:27;9.40;95.70
45283;DHT22;31023;44.994;1.796;2023-02-01T14:49:49;9.10;96.10
45283;DHT22;31023;44.994;1.796;2023-02-01T14:52:18;9.00;95.90
45283;DHT22;31023;44.994;1.796;2023-02-01T14:54:52;9.00;95.50
45283;DHT22;31023;44.994;1.796;2023-02-01T14:57:18;9.20;97.10
45283;DHT22;31023;44.994;1.796;2023-02-01T14:59:45;9.20;97.20
45283;DHT22;31023;44.994;1.796;2023-02-01T15:02:18;9.30;97.00
45283;DHT22;31023;44.994;1.796;2023-02-01T15:04:45;9.40;96.60
45283;DHT22;31023;44.994;1.796;2023-02-01T15:07:11;9.30;96.90
45283;DHT22;31023;44.994;1.796;2023-02-01T15:09:38;9.30;97.40
45283;DHT22;31023;44.994;1.796;2023-02-01T15:14:37;9.20;97.30
45283;DHT22;31023;44.994;1.796;2023-02-01T15:17:15;9.10;97.20
45283;DHT22;31023;44.994;1.796;2023-02-01T15:19:46;9.00;97.00
45283;DHT22;31023;44.994;1.796;2023-02-01T15:22:18;8.90;97.20
45283;DHT22;31023;44.994;1.796;2023-02-01T15:24:43;8.90;97.70
45283;DHT22;31023;44.994;1.796;2023-02-01T15:27:09;8.90;98.00
45283;DHT22;31023;44.994;1.796;2023-02-01T15:29:35;9.00;98.10
45283;DHT22;31023;44.994;1.796;2023-02-01T15:32:00;8.90;98.20
45283;DHT22;31023;44.994;1.796;2023-02-01T15:34:48;8.60;97.40
45283;DHT22;31023;44.994;1.796;2023-02-01T15:37:13;8.60;97.70
45283;DHT22;31023;44.994;1.796;2023-02-01T15:40:02;8.50;97.30
45283;DHT22;31023;44.994;1.796;2023-02-01T15:42:26;8.40;98.40
45283;DHT22;31023;44.994;1.796;2023-02-01T15:44:52;8.30;98.60
45283;DHT22;31023;44.994;1.796;2023-02-01T15:47:20;8.30;99.40
45283;DHT22;31023;44.994;1.796;2023-02-01T15:49:52;8.30;97.90
45283;DHT22;31023;44.994;1.796;2023-02-01T15:52:35;8.20;98.30
45283;DHT22;31023;44.994;1.796;2023-02-01T15:55:02;8.00;97.60
45283;DHT22;31023;44.994;1.796;2023-02-01T15:57:33;7.80;97.70
45283;DHT22;31023;44.994;1.796;2023-02-01T16:00:04;7.60;97.40
45283;DHT22;31023;44.994;1.796;2023-02-01T16:04:58;7.60;97.40
45283;DHT22;31023;44.994;1.796;2023-02-01T16:07:28;7.90;97.30
45283;DHT22;31023;44.994;1.796;2023-02-01T16:09:55;8.00;97.10
45283;DHT22;31023;44.994;1.796;2023-02-01T16:14:56;8.10;96.80
45283;DHT22;31023;44.994;1.796;2023-02-01T16:17:22;8.10;96.80
45283;DHT22;31023;44.994;1.796;2023-02-01T16:19:48;8.00;96.60
45283;DHT22;31023;44.994;1.796;2023-02-01T16:22:13;8.00;96.70
45283;DHT22;31023;44.994;1.796;2023-02-01T16:24:39;7.90;96.50
45283;DHT22;31023;44.994;1.796;2023-02-01T16:27:05;7.90;96.90
45283;DHT22;31023;44.994;1.796;2023-02-01T16:29:32;7.80;97.20
45283;DHT22;31023;44.994;1.796;2023-02-01T16:31:58;7.90;96.90
45283;DHT22;31023;44.994;1.796;2023-02-01T16:34:24;7.70;97.00
45283;DHT22;31023;44.994;1.796;2023-02-01T16:36:50;7.80;97.00
45283;DHT22;31023;44.994;1.796;2023-02-01T16:39:17;7.70;97.50
45283;DHT22;31023;44.994;1.796;2023-02-01T16:41:43;7.60;97.00
45283;DHT22;31023;44.994;1.796;2023-02-01T16:44:10;7.50;97.00
45283;DHT22;31023;44.994;1.796;2023-02-01T16:46:38;7.60;97.10
45283;DHT22;31023;44.994;1.796;2023-02-01T16:49:04;7.60;97.40
45283;DHT22;31023;44.994;1.796;2023-02-01T16:51:31;7.50;96.90
45283;DHT22;31023;44.994;1.796;2023-02-01T16:54:00;7.50;96.80
45283;DHT22;31023;44.994;1.796;2023-02-01T16:56:30;7.50;97.10
45283;DHT22;31023;44.994;1.796;2023-02-01T16:58:56;7.50;96.90
45283;DHT22;31023;44.994;1.796;2023-02-01T17:01:22;7.50;97.10
45283;DHT22;31023;44.994;1.796;2023-02-01T17:03:48;7.50;97.20
45283;DHT22;31023;44.994;1.796;2023-02-01T17:06:18;7.40;97.60
45283;DHT22;31023;44.994;1.796;2023-02-01T17:08:45;7.50;97.60
45283;DHT22;31023;44.994;1.796;2023-02-01T17:11:12;7.50;97.40
45283;DHT22;31023;44.994;1.796;2023-02-01T17:13:38;7.40;97.70
45283;DHT22;31023;44.994;1.796;2023-02-01T17:18:43;7.30;97.30
45283;DHT22;31023;44.994;1.796;2023-02-01T17:21:11;7.40;97.10
45283;DHT22;31023;44.994;1.796;2023-02-01T17:23:37;7.30;97.60
45283;DHT22;31023;44.994;1.796;2023-02-01T17:26:03;7.30;97.80
45283;DHT22;31023;44.994;1.796;2023-02-01T17:28:29;7.30;97.40
45283;DHT22;31023;44.994;1.796;2023-02-01T17:30:54;7.20;97.40
45283;DHT22;31023;44.994;1.796;2023-02-01T17:33:25;7.30;98.00
45283;DHT22;31023;44.994;1.796;2023-02-01T17:35:52;7.20;98.30
45283;DHT22;31023;44.994;1.796;2023-02-01T17:38:18;7.20;98.40
45283;DHT22;31023;44.994;1.796;2023-02-01T17:40:44;7.10;98.60
45283;DHT22;31023;44.994;1.796;2023-02-01T17:43:13;7.00;98.90
45283;DHT22;31023;44.994;1.796;2023-02-01T17:45:44;7.00;99.20
45283;DHT22;31023;44.994;1.796;2023-02-01T17:48:15;6.90;99.40
45283;DHT22;31023;44.994;1.796;2023-02-01T17:50:41;6.90;99.50
45283;DHT22;31023;44.994;1.796;2023-02-01T17:53:07;7.00;99.50
45283;DHT22;31023;44.994;1.796;2023-02-01T17:55:35;7.00;99.80
45283;DHT22;31023;44.994;1.796;2023-02-01T17:58:00;6.90;99.90
45283;DHT22;31023;44.994;1.796;2023-02-01T18:00:26;6.90;99.60
45283;DHT22;31023;44.994;1.796;2023-02-01T18:02:52;6.90;99.60
45283;DHT22;31023;44.994;1.796;2023-02-01T18:07:43;7.10;98.70
45283;DHT22;31023;44.994;1.796;2023-02-01T18:10:09;7.10;98.60
45283;DHT22;31023;44.994;1.796;2023-02-01T18:12:34;7.10;98.30
45283;DHT22;31023;44.994;1.796;2023-02-01T18:15:00;7.10;98.40
45283;DHT22;31023;44.994;1.796;2023-02-01T18:17:26;6.90;98.40
45283;DHT22;31023;44.994;1.796;2023-02-01T18:19:51;6.90;98.50
45283;DHT22;31023;44.994;1.796;2023-02-01T18:22:18;6.90;98.50
45283;DHT22;31023;44.994;1.796;2023-02-01T18:24:45;6.80;97.50
45283;DHT22;31023;44.994;1.796;2023-02-01T18:27:11;6.80;97.40
45283;DHT22;31023;44.994;1.796;2023-02-01T18:29:37;6.90;98.00
45283;DHT22;31023;44.994;1.796;2023-02-01T18:32:02;6.90;98.10
45283;DHT22;31023;44.994;1.796;2023-02-01T18:34:28;6.90;98.40
45283;DHT22;31023;44.994;1.796;2023-02-01T18:36:54;7.00;98.60
45283;DHT22;31023;44.994;1.796;2023-02-01T18:39:20;6.80;98.90